sensor_id;sensor_type;location;lat;lon;timestamp;pressure;altitude;pressure_sealevel;temperature;humidity
60319;BME280;46163;52.306;5.634;2024-02-23T00:02:06;98466.28;;;3.34;100.00
60319;BME280;46163;52.306;5.634;2024-02-23T00:04:31;98476.34;;;3.37;100.00
60319;BME280;46163;52.306;5.634;2024-02-23T00:06:56;98473.88;;;3.49;100.00
60319;BME280;46163;52.306;5.634;2024-02-23T00:09:22;98436.19;;;3.30;100.00
60319;BME280;46163;52.306;5.634;2024-02-23T00:11:47;98481.53;;;3.51;100.00
60319;BME280;46163;52.306;5.634;2024-02-23T00:14:15;98478.66;;;3.59;100.00
60319;BME280;46163;52.306;5.634;2024-02-23T00:16:43;98490.34;;;3.63;100.00
60319;BME280;46163;52.306;5.634;2024-02-23T00:19:09;98481.00;;;3.74;100.00
60319;BME280;46163;52.306;5.634;2024-02-23T00:21:38;98458.78;;;3.63;100.00
60319;BME280;46163;52.306;5.634;2024-02-23T00:24:04;98486.41;;;3.79;100.00
60319;BME280;46163;52.306;5.634;2024-02-23T00:26:30;98494.88;;;3.81;100.00
60319;BME280;46163;52.306;5.634;2024-02-23T00:28:56;98493.44;;;3.85;100.00
60319;BME280;46163;52.306;5.634;2024-02-23T00:31:21;98459.41;;;3.65;100.00
60319;BME280;46163;52.306;5.634;2024-02-23T00:33:47;98498.81;;;3.96;100.00
60319;BME280;46163;52.306;5.634;2024-02-23T00:36:12;98501.22;;;3.98;100.00
60319;BME280;46163;52.306;5.634;2024-02-23T00:38:38;98489.25;;;4.02;100.00
60319;BME280;46163;52.306;5.634;2024-02-23T00:41:03;98491.69;;;4.04;100.00
60319;BME280;46163;52.306;5.634;2024-02-23T00:43:28;98503.22;;;4.03;100.00
60319;BME280;46163;52.306;5.634;2024-02-23T00:45:57;98500.81;;;4.01;100.00
60319;BME280;46163;52.306;5.634;2024-02-23T00:48:22;98506.72;;;3.96;100.00
60319;BME280;46163;52.306;5.634;2024-02-23T00:50:47;98507.50;;;3.97;100.00
60319;BME280;46163;52.306;5.634;2024-02-23T00:53:13;98489.44;;;3.82;100.00
60319;BME280;46163;52.306;5.634;2024-02-23T00:55:38;98521.06;;;4.01;100.00
60319;BME280;46163;52.306;5.634;2024-02-23T00:58:04;98526.91;;;4.03;100.00
60319;BME280;46163;52.306;5.634;2024-02-23T01:00:29;98533.03;;;3.96;100.00
60319;BME280;46163;52.306;5.634;2024-02-23T01:02:55;98543.13;;;4.00;100.00
60319;BME280;46163;52.306;5.634;2024-02-23T01:05:20;98531.78;;;3.99;100.00
60319;BME280;46163;52.306;5.634;2024-02-23T01:07:45;98548.72;;;4.10;100.00
60319;BME280;46163;52.306;5.634;2024-02-23T01:10:11;98552.31;;;4.15;100.00
60319;BME280;46163;52.306;5.634;2024-02-23T01:12:37;98541.28;;;4.25;100.00
60319;BME280;46163;52.306;5.634;2024-02-23T01:15:02;98553.47;;;4.26;100.00
60319;BME280;46163;52.306;5.634;2024-02-23T01:17:28;98554.41;;;4.32;100.00
60319;BME280;46163;52.306;5.634;2024-02-23T01:19:53;98561.06;;;4.34;100.00
60319;BME280;46163;52.306;5.634;2024-02-23T01:22:19;98547.59;;;4.24;100.00
60319;BME280;46163;52.306;5.634;2024-02-23T01:24:44;98559.19;;;4.41;100.00
60319;BME280;46163;52.306;5.634;2024-02-23T01:27:11;98572.03;;;4.31;100.00
60319;BME280;46163;52.306;5.634;2024-02-23T01:29:36;98576.28;;;4.32;100.00
60319;BME280;46163;52.306;5.634;2024-02-23T01:32:02;98573.06;;;4.30;100.00
60319;BME280;46163;52.306;5.634;2024-02-23T01:34:28;98576.50;;;4.31;100.00
60319;BME280;46163;52.306;5.634;2024-02-23T01:36:53;98579.50;;;4.34;100.00
60319;BME280;46163;52.306;5.634;2024-02-23T01:39:18;98578.91;;;4.32;100.00
60319;BME280;46163;52.306;5.634;2024-02-23T01:41:44;98595.53;;;4.33;100.00
60319;BME280;46163;52.306;5.634;2024-02-23T01:44:11;98604.84;;;4.35;100.00
60319;BME280;46163;52.306;5.634;2024-02-23T01:46:37;98598.97;;;4.33;100.00
60319;BME280;46163;52.306;5.634;2024-02-23T01:49:02;98601.19;;;4.36;100.00
60319;BME280;46163;52.306;5.634;2024-02-23T01:51:29;98628.91;;;4.39;100.00
60319;BME280;46163;52.306;5.634;2024-02-23T01:53:55;98616.97;;;4.36;100.00
60319;BME280;46163;52.306;5.634;2024-02-23T01:56:20;98617.47;;;4.27;100.00
60319;BME280;46163;52.306;5.634;2024-02-23T01:58:46;98620.72;;;4.22;100.00
60319;BME280;46163;52.306;5.634;2024-02-23T02:01:12;98592.97;;;3.94;100.00
60319;BME280;46163;52.306;5.634;2024-02-23T02:03:38;98624.88;;;4.05;100.00
60319;BME280;46163;52.306;5.634;2024-02-23T02:06:09;98628.53;;;4.04;100.00
60319;BME280;46163;52.306;5.634;2024-02-23T02:08:35;98620.66;;;4.04;100.00
60319;BME280;46163;52.306;5.634;2024-02-23T02:11:01;98613.78;;;4.03;100.00
60319;BME280;46163;52.306;5.634;2024-02-23T02:13:30;98636.44;;;4.04;100.00
60319;BME280;46163;52.306;5.634;2024-02-23T02:15:59;98623.91;;;3.99;100.00
60319;BME280;46163;52.306;5.634;2024-02-23T02:18:25;98623.28;;;4.04;100.00
60319;BME280;46163;52.306;5.634;2024-02-23T02:20:54;98625.09;;;4.03;100.00
60319;BME280;46163;52.306;5.634;2024-02-23T02:23:20;98637.25;;;4.04;100.00
60319;BME280;46163;52.306;5.634;2024-02-23T02:25:52;98638.47;;;4.02;100.00
60319;BME280;46163;52.306;5.634;2024-02-23T02:28:18;98653.25;;;4.03;100.00
60319;BME280;46163;52.306;5.634;2024-02-23T02:30:43;98637.47;;;4.03;100.00
60319;BME280;46163;52.306;5.634;2024-02-23T02:33:09;98659.69;;;4.07;100.00
60319;BME280;46163;52.306;5.634;2024-02-23T02:35:34;98653.41;;;4.08;100.00
60319;BME280;46163;52.306;5.634;2024-02-23T02:38:00;98646.78;;;3.98;100.00
60319;BME280;46163;52.306;5.634;2024-02-23T02:40:25;98661.13;;;4.09;100.00
60319;BME280;46163;52.306;5.634;2024-02-23T02:42:51;98671.44;;;4.11;100.00
60319;BME280;46163;52.306;5.634;2024-02-23T02:45:16;98666.56;;;4.08;100.00
60319;BME280;46163;52.306;5.634;2024-02-23T02:47:42;98654.03;;;4.10;100.00
60319;BME280;46163;52.306;5.634;2024-02-23T02:50:08;98640.09;;;4.03;100.00
60319;BME280;46163;52.306;5.634;2024-02-23T02:52:34;98670.22;;;4.07;100.00
60319;BME280;46163;52.306;5.634;2024-02-23T02:55:00;98625.41;;;3.82;100.00
60319;BME280;46163;52.306;5.634;2024-02-23T02:57:25;98678.94;;;4.07;100.00
60319;BME280;46163;52.306;5.634;2024-02-23T02:59:51;98672.44;;;4.10;100.00
60319;BME280;46163;52.306;5.634;2024-02-23T03:02:16;98676.28;;;4.07;100.00
60319;BME280;46163;52.306;5.634;2024-02-23T03:04:49;98679.16;;;4.06;100.00
60319;BME280;46163;52.306;5.634;2024-02-23T03:07:15;98682.38;;;4.08;100.00
60319;BME280;46163;52.306;5.634;2024-02-23T03:09:40;98674.31;;;4.03;100.00
60319;BME280;46163;52.306;5.634;2024-02-23T03:12:06;98681.19;;;4.04;100.00
60319;BME280;46163;52.306;5.634;2024-02-23T03:14:31;98680.38;;;4.03;100.00
60319;BME280;46163;52.306;5.634;2024-02-23T03:16:59;98681.00;;;3.98;100.00
60319;BME280;46163;52.306;5.634;2024-02-23T03:19:24;98686.06;;;4.00;100.00
60319;BME280;46163;52.306;5.634;2024-02-23T03:21:51;98693.31;;;4.05;100.00
60319;BME280;46163;52.306;5.634;2024-02-23T03:24:17;98696.75;;;4.05;100.00
60319;BME280;46163;52.306;5.634;2024-02-23T03:26:43;98700.41;;;4.04;100.00
60319;BME280;46163;52.306;5.634;2024-02-23T03:29:09;98686.22;;;4.05;100.00
60319;BME280;46163;52.306;5.634;2024-02-23T03:31:35;98691.13;;;4.02;100.00
60319;BME280;46163;52.306;5.634;2024-02-23T03:34:01;98695.75;;;4.00;100.00
60319;BME280;46163;52.306;5.634;2024-02-23T03:36:27;98697.81;;;3.97;100.00
60319;BME280;46163;52.306;5.634;2024-02-23T03:38:54;98705.53;;;3.92;100.00
60319;BME280;46163;52.306;5.634;2024-02-23T03:41:19;98704.13;;;3.90;100.00
60319;BME280;46163;52.306;5.634;2024-02-23T03:43:44;98710.81;;;3.92;100.00
60319;BME280;46163;52.306;5.634;2024-02-23T03:46:10;98710.59;;;3.94;100.00
60319;BME280;46163;52.306;5.634;2024-02-23T03:48:37;98700.50;;;3.91;100.00
60319;BME280;46163;52.306;5.634;2024-02-23T03:51:06;98713.44;;;3.92;100.00
60319;BME280;46163;52.306;5.634;2024-02-23T03:53:33;98729.47;;;3.84;100.00
60319;BME280;46163;52.306;5.634;2024-02-23T03:55:59;98733.50;;;3.80;100.00
60319;BME280;46163;52.306;5.634;2024-02-23T03:58:24;98729.69;;;3.76;100.00
60319;BME280;46163;52.306;5.634;2024-02-23T04:00:49;98702.59;;;3.62;100.00
60319;BME280;46163;52.306;5.634;2024-02-23T04:03:15;98733.91;;;3.84;100.00
60319;BME280;46163;52.306;5.634;2024-02-23T04:05:40;98726.84;;;3.78;100.00
60319;BME280;46163;52.306;5.634;2024-02-23T04:08:06;98737.97;;;3.80;100.00
60319;BME280;46163;52.306;5.634;2024-02-23T04:10:31;98738.97;;;3.85;100.00
60319;BME280;46163;52.306;5.634;2024-02-23T04:12:57;98744.66;;;3.82;100.00
60319;BME280;46163;52.306;5.634;2024-02-23T04:15:23;98751.72;;;3.82;100.00
60319;BME280;46163;52.306;5.634;2024-02-23T04:17:49;98748.91;;;3.83;100.00
60319;BME280;46163;52.306;5.634;2024-02-23T04:20:14;98736.56;;;3.77;100.00
60319;BME280;46163;52.306;5.634;2024-02-23T04:22:40;98759.66;;;3.75;100.00
60319;BME280;46163;52.306;5.634;2024-02-23T04:25:06;98756.22;;;3.75;100.00
60319;BME280;46163;52.306;5.634;2024-02-23T04:27:31;98751.34;;;3.78;100.00
60319;BME280;46163;52.306;5.634;2024-02-23T04:29:57;98756.81;;;3.70;100.00
60319;BME280;46163;52.306;5.634;2024-02-23T04:32:22;98756.44;;;3.66;100.00
60319;BME280;46163;52.306;5.634;2024-02-23T04:34:48;98759.66;;;3.62;100.00
60319;BME280;46163;52.306;5.634;2024-02-23T04:37:14;98761.50;;;3.61;100.00
60319;BME280;46163;52.306;5.634;2024-02-23T04:39:39;98740.31;;;3.36;100.00
60319;BME280;46163;52.306;5.634;2024-02-23T04:42:07;98776.09;;;3.57;100.00
60319;BME280;46163;52.306;5.634;2024-02-23T04:44:34;98779.53;;;3.58;100.00
60319;BME280;46163;52.306;5.634;2024-02-23T04:47:00;98777.91;;;3.57;100.00
60319;BME280;46163;52.306;5.634;2024-02-23T04:49:25;98741.31;;;3.35;100.00
60319;BME280;46163;52.306;5.634;2024-02-23T04:51:51;98784.94;;;3.76;100.00
60319;BME280;46163;52.306;5.634;2024-02-23T04:54:16;98798.31;;;3.75;100.00
60319;BME280;46163;52.306;5.634;2024-02-23T04:56:42;98788.41;;;3.63;100.00
60319;BME280;46163;52.306;5.634;2024-02-23T04:59:07;98777.88;;;3.63;100.00
60319;BME280;46163;52.306;5.634;2024-02-23T05:01:36;98779.53;;;3.58;100.00
60319;BME280;46163;52.306;5.634;2024-02-23T05:04:03;98799.97;;;3.49;100.00
60319;BME280;46163;52.306;5.634;2024-02-23T05:06:29;98797.13;;;3.51;100.00
60319;BME280;46163;52.306;5.634;2024-02-23T05:08:55;98799.97;;;3.36;100.00
60319;BME280;46163;52.306;5.634;2024-02-23T05:11:20;98798.16;;;3.56;100.00
60319;BME280;46163;52.306;5.634;2024-02-23T05:13:46;98801.97;;;3.47;100.00
60319;BME280;46163;52.306;5.634;2024-02-23T05:16:14;98796.31;;;3.44;100.00
60319;BME280;46163;52.306;5.634;2024-02-23T05:18:40;98793.69;;;3.44;100.00
60319;BME280;46163;52.306;5.634;2024-02-23T05:21:06;98765.38;;;3.46;100.00
60319;BME280;46163;52.306;5.634;2024-02-23T05:23:32;98796.34;;;3.30;100.00
60319;BME280;46163;52.306;5.634;2024-02-23T05:25:57;98799.34;;;3.54;100.00
60319;BME280;46163;52.306;5.634;2024-02-23T05:28:23;98793.50;;;3.38;100.00
60319;BME280;46163;52.306;5.634;2024-02-23T05:30:48;98797.34;;;3.43;100.00
60319;BME280;46163;52.306;5.634;2024-02-23T05:33:14;98803.81;;;3.33;100.00
60319;BME280;46163;52.306;5.634;2024-02-23T05:35:39;98801.41;;;3.25;100.00
60319;BME280;46163;52.306;5.634;2024-02-23T05:38:04;98804.03;;;2.99;100.00
60319;BME280;46163;52.306;5.634;2024-02-23T05:40:31;98799.78;;;2.98;100.00
60319;BME280;46163;52.306;5.634;2024-02-23T05:42:58;98805.81;;;2.72;100.00
60319;BME280;46163;52.306;5.634;2024-02-23T05:45:23;98799.06;;;2.49;100.00
60319;BME280;46163;52.306;5.634;2024-02-23T05:47:50;98802.53;;;1.95;100.00
60319;BME280;46163;52.306;5.634;2024-02-23T05:50:15;98811.28;;;2.09;100.00
60319;BME280;46163;52.306;5.634;2024-02-23T05:52:41;98798.84;;;1.83;100.00
60319;BME280;46163;52.306;5.634;2024-02-23T05:55:06;98806.47;;;0.73;99.45
60319;BME280;46163;52.306;5.634;2024-02-23T05:57:33;98810.78;;;0.80;100.00
60319;BME280;46163;52.306;5.634;2024-02-23T05:59:59;98810.53;;;1.87;100.00
60319;BME280;46163;52.306;5.634;2024-02-23T06:02:24;98805.03;;;3.04;100.00
60319;BME280;46163;52.306;5.634;2024-02-23T06:04:50;98809.69;;;3.29;100.00
60319;BME280;46163;52.306;5.634;2024-02-23T06:07:16;98808.06;;;3.34;100.00
60319;BME280;46163;52.306;5.634;2024-02-23T06:09:44;98806.63;;;3.52;100.00
60319;BME280;46163;52.306;5.634;2024-02-23T06:12:10;98810.66;;;3.54;100.00
60319;BME280;46163;52.306;5.634;2024-02-23T06:14:35;98804.81;;;3.59;100.00
60319;BME280;46163;52.306;5.634;2024-02-23T06:17:01;98820.75;;;3.71;100.00
60319;BME280;46163;52.306;5.634;2024-02-23T06:19:28;98805.19;;;3.69;100.00
60319;BME280;46163;52.306;5.634;2024-02-23T06:21:54;98807.81;;;3.69;100.00
60319;BME280;46163;52.306;5.634;2024-02-23T06:24:19;98809.25;;;3.65;100.00
60319;BME280;46163;52.306;5.634;2024-02-23T06:26:45;98793.66;;;3.63;100.00
60319;BME280;46163;52.306;5.634;2024-02-23T06:29:11;98804.81;;;3.19;100.00
60319;BME280;46163;52.306;5.634;2024-02-23T06:31:38;98808.66;;;2.83;100.00
60319;BME280;46163;52.306;5.634;2024-02-23T06:34:05;98800.38;;;3.06;100.00
60319;BME280;46163;52.306;5.634;2024-02-23T06:36:30;98780.72;;;2.69;100.00
60319;BME280;46163;52.306;5.634;2024-02-23T06:38:56;98800.50;;;1.63;90.45
60319;BME280;46163;52.306;5.634;2024-02-23T06:41:21;98809.47;;;1.19;100.00
60319;BME280;46163;52.306;5.634;2024-02-23T06:43:47;98798.63;;;2.33;100.00
60319;BME280;46163;52.306;5.634;2024-02-23T06:46:13;98804.03;;;3.05;100.00
60319;BME280;46163;52.306;5.634;2024-02-23T06:48:38;98778.53;;;3.12;100.00
60319;BME280;46163;52.306;5.634;2024-02-23T06:51:04;98808.63;;;3.63;100.00
60319;BME280;46163;52.306;5.634;2024-02-23T06:53:30;98820.75;;;3.71;100.00
60319;BME280;46163;52.306;5.634;2024-02-23T06:55:56;98805.09;;;4.02;100.00
60319;BME280;46163;52.306;5.634;2024-02-23T06:58:22;98812.00;;;3.96;100.00
60319;BME280;46163;52.306;5.634;2024-02-23T07:00:47;98801.72;;;3.82;100.00
60319;BME280;46163;52.306;5.634;2024-02-23T07:03:13;98797.22;;;3.95;100.00
60319;BME280;46163;52.306;5.634;2024-02-23T07:05:40;98795.16;;;4.11;100.00
60319;BME280;46163;52.306;5.634;2024-02-23T07:08:08;98799.22;;;4.07;100.00
60319;BME280;46163;52.306;5.634;2024-02-23T07:10:33;98793.56;;;4.03;100.00
60319;BME280;46163;52.306;5.634;2024-02-23T07:12:59;98794.56;;;4.02;99.47
60319;BME280;46163;52.306;5.634;2024-02-23T07:15:24;98794.81;;;3.87;100.00
60319;BME280;46163;52.306;5.634;2024-02-23T07:17:54;98798.34;;;3.42;93.62
60319;BME280;46163;52.306;5.634;2024-02-23T07:20:20;98797.56;;;3.48;99.97
60319;BME280;46163;52.306;5.634;2024-02-23T07:22:46;98805.25;;;3.16;100.00
60319;BME280;46163;52.306;5.634;2024-02-23T07:25:15;98801.13;;;2.54;87.47
60319;BME280;46163;52.306;5.634;2024-02-23T07:27:41;98800.50;;;1.97;88.02
60319;BME280;46163;52.306;5.634;2024-02-23T07:30:07;98805.50;;;0.59;93.81
60319;BME280;46163;52.306;5.634;2024-02-23T07:32:33;98815.06;;;2.07;100.00
60319;BME280;46163;52.306;5.634;2024-02-23T07:34:58;98805.03;;;3.11;100.00
60319;BME280;46163;52.306;5.634;2024-02-23T07:37:26;98804.59;;;3.67;100.00
60319;BME280;46163;52.306;5.634;2024-02-23T07:39:51;98796.19;;;4.03;100.00
60319;BME280;46163;52.306;5.634;2024-02-23T07:42:17;98793.66;;;4.28;100.00
60319;BME280;46163;52.306;5.634;2024-02-23T07:44:44;98792.97;;;4.46;100.00
60319;BME280;46163;52.306;5.634;2024-02-23T07:47:11;98779.00;;;4.45;99.56
60319;BME280;46163;52.306;5.634;2024-02-23T07:49:36;98793.91;;;4.58;99.53
60319;BME280;46163;52.306;5.634;2024-02-23T07:52:02;98753.75;;;4.31;98.63
60319;BME280;46163;52.306;5.634;2024-02-23T07:54:28;98778.25;;;4.70;97.95
60319;BME280;46163;52.306;5.634;2024-02-23T07:56:54;98785.41;;;4.56;98.12
60319;BME280;46163;52.306;5.634;2024-02-23T07:59:20;98788.47;;;4.85;98.09
60319;BME280;46163;52.306;5.634;2024-02-23T08:01:45;98785.78;;;4.91;96.74
60319;BME280;46163;52.306;5.634;2024-02-23T08:04:12;98778.84;;;4.72;96.43
60319;BME280;46163;52.306;5.634;2024-02-23T08:06:39;98730.53;;;4.15;95.28
60319;BME280;46163;52.306;5.634;2024-02-23T08:09:04;98772.25;;;4.18;92.05
60319;BME280;46163;52.306;5.634;2024-02-23T08:11:30;98729.25;;;3.79;94.17
60319;BME280;46163;52.306;5.634;2024-02-23T08:13:56;98717.31;;;3.83;95.76
60319;BME280;46163;52.306;5.634;2024-02-23T08:16:21;98767.50;;;3.88;91.96
60319;BME280;46163;52.306;5.634;2024-02-23T08:18:47;98771.84;;;3.50;93.87
60319;BME280;46163;52.306;5.634;2024-02-23T08:21:12;98769.03;;;2.92;85.07
60319;BME280;46163;52.306;5.634;2024-02-23T08:23:38;98771.81;;;2.50;87.72
60319;BME280;46163;52.306;5.634;2024-02-23T08:26:04;98772.69;;;2.91;100.00
60319;BME280;46163;52.306;5.634;2024-02-23T08:28:29;98774.00;;;3.73;100.00
60319;BME280;46163;52.306;5.634;2024-02-23T08:30:55;98761.22;;;4.34;100.00
60319;BME280;46163;52.306;5.634;2024-02-23T08:33:20;98770.34;;;4.70;98.86
60319;BME280;46163;52.306;5.634;2024-02-23T08:35:46;98723.66;;;4.77;97.87
60319;BME280;46163;52.306;5.634;2024-02-23T08:38:14;98770.63;;;4.87;95.02
60319;BME280;46163;52.306;5.634;2024-02-23T08:40:39;98768.63;;;5.32;93.51
60319;BME280;46163;52.306;5.634;2024-02-23T08:43:05;98763.38;;;5.32;93.08
60319;BME280;46163;52.306;5.634;2024-02-23T08:45:31;98751.50;;;5.41;92.58
60319;BME280;46163;52.306;5.634;2024-02-23T08:47:56;98755.19;;;5.40;91.74
60319;BME280;46163;52.306;5.634;2024-02-23T08:50:22;98758.50;;;5.29;92.77
60319;BME280;46163;52.306;5.634;2024-02-23T08:52:47;98760.19;;;5.23;90.95
60319;BME280;46163;52.306;5.634;2024-02-23T08:55:13;98759.28;;;5.11;91.52
60319;BME280;46163;52.306;5.634;2024-02-23T08:57:38;98754.38;;;5.15;91.81
60319;BME280;46163;52.306;5.634;2024-02-23T09:00:05;98755.78;;;5.17;93.68
60319;BME280;46163;52.306;5.634;2024-02-23T09:02:31;98751.75;;;5.15;91.55
60319;BME280;46163;52.306;5.634;2024-02-23T09:05:01;98763.69;;;4.92;89.72
60319;BME280;46163;52.306;5.634;2024-02-23T09:07:26;98742.44;;;4.87;92.93
60319;BME280;46163;52.306;5.634;2024-02-23T09:09:52;98733.19;;;4.78;91.01
60319;BME280;46163;52.306;5.634;2024-02-23T09:12:18;98743.59;;;4.66;94.91
60319;BME280;46163;52.306;5.634;2024-02-23T09:14:43;98760.84;;;4.31;92.57
60319;BME280;46163;52.306;5.634;2024-02-23T09:17:09;98764.34;;;4.18;94.66
60319;BME280;46163;52.306;5.634;2024-02-23T09:19:36;98766.13;;;3.73;95.04
60319;BME280;46163;52.306;5.634;2024-02-23T09:22:02;98766.69;;;3.88;92.50
60319;BME280;46163;52.306;5.634;2024-02-23T09:24:28;98733.19;;;3.57;100.00
60319;BME280;46163;52.306;5.634;2024-02-23T09:26:54;98765.00;;;3.22;98.37
60319;BME280;46163;52.306;5.634;2024-02-23T09:29:19;98761.94;;;3.38;100.00
60319;BME280;46163;52.306;5.634;2024-02-23T09:31:45;98765.78;;;2.76;88.10
60319;BME280;46163;52.306;5.634;2024-02-23T09:34:11;98766.56;;;2.50;99.29
60319;BME280;46163;52.306;5.634;2024-02-23T09:36:36;98776.25;;;1.89;100.00
60319;BME280;46163;52.306;5.634;2024-02-23T09:39:02;98767.81;;;2.94;100.00
60319;BME280;46163;52.306;5.634;2024-02-23T09:41:30;98764.53;;;3.58;100.00
60319;BME280;46163;52.306;5.634;2024-02-23T09:43:58;98754.97;;;4.29;100.00
60319;BME280;46163;52.306;5.634;2024-02-23T09:46:25;98757.91;;;4.77;100.00
60319;BME280;46163;52.306;5.634;2024-02-23T09:48:51;98752.66;;;5.27;100.00
60319;BME280;46163;52.306;5.634;2024-02-23T09:51:17;98763.75;;;5.54;99.99
60319;BME280;46163;52.306;5.634;2024-02-23T09:53:43;98767.41;;;5.53;99.18
60319;BME280;46163;52.306;5.634;2024-02-23T09:56:09;98765.06;;;5.45;99.29
60319;BME280;46163;52.306;5.634;2024-02-23T09:58:36;98767.16;;;5.36;98.59
60319;BME280;46163;52.306;5.634;2024-02-23T10:01:03;98773.16;;;5.25;98.15
60319;BME280;46163;52.306;5.634;2024-02-23T10:03:30;98777.84;;;5.23;98.75
60319;BME280;46163;52.306;5.634;2024-02-23T10:05:58;98774.78;;;5.26;98.56
60319;BME280;46163;52.306;5.634;2024-02-23T10:08:25;98781.66;;;5.27;97.49
60319;BME280;46163;52.306;5.634;2024-02-23T10:10:50;98785.53;;;5.24;99.17
60319;BME280;46163;52.306;5.634;2024-02-23T10:13:20;98785.59;;;5.18;100.00
60319;BME280;46163;52.306;5.634;2024-02-23T10:15:52;98776.34;;;5.33;98.18
60319;BME280;46163;52.306;5.634;2024-02-23T10:18:19;98794.06;;;5.45;98.39
60319;BME280;46163;52.306;5.634;2024-02-23T10:20:46;98783.94;;;5.66;96.33
60319;BME280;46163;52.306;5.634;2024-02-23T10:23:11;98798.75;;;5.86;95.93
60319;BME280;46163;52.306;5.634;2024-02-23T10:25:37;98788.66;;;5.83;96.51
60319;BME280;46163;52.306;5.634;2024-02-23T10:28:06;98802.56;;;5.90;95.37
60319;BME280;46163;52.306;5.634;2024-02-23T10:30:32;98803.91;;;5.99;94.98
60319;BME280;46163;52.306;5.634;2024-02-23T10:32:58;98793.66;;;5.91;94.19
60319;BME280;46163;52.306;5.634;2024-02-23T10:35:25;98800.97;;;6.07;95.02
60319;BME280;46163;52.306;5.634;2024-02-23T10:37:52;98795.44;;;6.45;93.49
60319;BME280;46163;52.306;5.634;2024-02-23T10:40:21;98769.38;;;6.01;93.93
60319;BME280;46163;52.306;5.634;2024-02-23T10:42:55;98798.56;;;6.06;95.53
60319;BME280;46163;52.306;5.634;2024-02-23T10:45:21;98792.97;;;5.77;96.54
60319;BME280;46163;52.306;5.634;2024-02-23T10:47:51;98779.41;;;5.74;95.56
60319;BME280;46163;52.306;5.634;2024-02-23T10:50:17;98807.94;;;5.83;96.55
60319;BME280;46163;52.306;5.634;2024-02-23T10:52:45;98820.91;;;5.85;96.12
60319;BME280;46163;52.306;5.634;2024-02-23T10:55:13;98809.19;;;5.99;95.83
60319;BME280;46163;52.306;5.634;2024-02-23T10:57:39;98812.84;;;5.98;95.58
60319;BME280;46163;52.306;5.634;2024-02-23T11:00:06;98828.00;;;6.09;95.67
60319;BME280;46163;52.306;5.634;2024-02-23T11:02:43;98828.56;;;6.11;96.05
60319;BME280;46163;52.306;5.634;2024-02-23T11:05:11;98827.03;;;6.22;95.35
60319;BME280;46163;52.306;5.634;2024-02-23T11:07:40;98828.84;;;6.21;96.89
60319;BME280;46163;52.306;5.634;2024-02-23T11:10:07;98827.19;;;6.27;97.38
60319;BME280;46163;52.306;5.634;2024-02-23T11:12:35;98832.22;;;6.29;94.41
60319;BME280;46163;52.306;5.634;2024-02-23T11:15:01;98828.50;;;6.66;93.71
60319;BME280;46163;52.306;5.634;2024-02-23T11:17:29;98828.19;;;6.74;94.20
60319;BME280;46163;52.306;5.634;2024-02-23T11:19:56;98826.91;;;6.77;94.12
60319;BME280;46163;52.306;5.634;2024-02-23T11:22:26;98840.84;;;7.14;92.93
60319;BME280;46163;52.306;5.634;2024-02-23T11:24:52;98843.25;;;7.04;91.94
60319;BME280;46163;52.306;5.634;2024-02-23T11:27:18;98838.38;;;7.01;91.74
60319;BME280;46163;52.306;5.634;2024-02-23T11:29:47;98803.56;;;6.62;92.73
60319;BME280;46163;52.306;5.634;2024-02-23T11:32:16;98838.44;;;6.83;91.39
60319;BME280;46163;52.306;5.634;2024-02-23T11:34:57;98832.34;;;6.82;92.78
60319;BME280;46163;52.306;5.634;2024-02-23T11:37:22;98843.16;;;6.80;92.27
60319;BME280;46163;52.306;5.634;2024-02-23T11:39:48;98837.16;;;6.73;90.36
60319;BME280;46163;52.306;5.634;2024-02-23T11:42:14;98847.50;;;6.75;91.96
60319;BME280;46163;52.306;5.634;2024-02-23T11:44:40;98848.84;;;6.96;91.19
60319;BME280;46163;52.306;5.634;2024-02-23T11:47:07;98857.28;;;7.16;92.42
60319;BME280;46163;52.306;5.634;2024-02-23T11:49:32;98855.09;;;7.13;91.51
60319;BME280;46163;52.306;5.634;2024-02-23T11:51:58;98853.25;;;7.14;91.77
60319;BME280;46163;52.306;5.634;2024-02-23T11:54:23;98859.72;;;7.29;90.32
60319;BME280;46163;52.306;5.634;2024-02-23T11:56:49;98857.44;;;7.21;89.67
60319;BME280;46163;52.306;5.634;2024-02-23T11:59:20;98863.28;;;7.23;90.32
60319;BME280;46163;52.306;5.634;2024-02-23T12:01:46;98862.00;;;7.14;90.34
60319;BME280;46163;52.306;5.634;2024-02-23T12:04:14;98870.97;;;7.13;90.16
60319;BME280;46163;52.306;5.634;2024-02-23T12:06:40;98867.88;;;7.28;92.14
60319;BME280;46163;52.306;5.634;2024-02-23T12:09:05;98861.00;;;7.27;90.38
60319;BME280;46163;52.306;5.634;2024-02-23T12:11:31;98880.78;;;7.36;88.68
60319;BME280;46163;52.306;5.634;2024-02-23T12:13:57;98872.28;;;7.22;88.83
60319;BME280;46163;52.306;5.634;2024-02-23T12:16:22;98878.91;;;7.13;88.62
60319;BME280;46163;52.306;5.634;2024-02-23T12:18:55;98872.41;;;6.97;89.24
60319;BME280;46163;52.306;5.634;2024-02-23T12:21:23;98867.69;;;6.88;89.91
60319;BME280;46163;52.306;5.634;2024-02-23T12:23:49;98879.41;;;6.92;88.92
60319;BME280;46163;52.306;5.634;2024-02-23T12:26:17;98884.44;;;6.82;90.04
60319;BME280;46163;52.306;5.634;2024-02-23T12:28:43;98881.31;;;6.85;90.74
60319;BME280;46163;52.306;5.634;2024-02-23T12:31:09;98859.13;;;6.86;89.41
60319;BME280;46163;52.306;5.634;2024-02-23T12:33:36;98886.75;;;6.90;89.99
60319;BME280;46163;52.306;5.634;2024-02-23T12:36:04;98898.44;;;6.82;90.01
60319;BME280;46163;52.306;5.634;2024-02-23T12:38:30;98848.59;;;6.67;89.46
60319;BME280;46163;52.306;5.634;2024-02-23T12:40:56;98895.81;;;6.82;90.21
60319;BME280;46163;52.306;5.634;2024-02-23T12:43:21;98895.16;;;6.87;91.32
60319;BME280;46163;52.306;5.634;2024-02-23T12:45:53;98885.72;;;6.91;88.81
60319;BME280;46163;52.306;5.634;2024-02-23T12:48:19;98886.56;;;7.03;90.03
60319;BME280;46163;52.306;5.634;2024-02-23T12:50:45;98880.94;;;6.99;90.57
60319;BME280;46163;52.306;5.634;2024-02-23T12:53:30;98887.28;;;7.10;89.35
60319;BME280;46163;52.306;5.634;2024-02-23T12:55:57;98890.50;;;7.12;89.17
60319;BME280;46163;52.306;5.634;2024-02-23T12:58:23;98895.78;;;7.12;89.34
60319;BME280;46163;52.306;5.634;2024-02-23T13:00:48;98898.94;;;7.21;90.64